createdAt,value
2022-10-18T00:01:05.726Z,101482.41
2022-10-18T00:03:34.433Z,101542.41
2022-10-18T00:06:03.037Z,101502.22
2022-10-18T00:08:31.316Z,101547.78
2022-10-18T00:10:58.849Z,101503.44
2022-10-18T00:13:26.490Z,101521.53
2022-10-18T00:15:57.133Z,101524.88
2022-10-18T00:18:25.043Z,101539.53
2022-10-18T00:21:11.030Z,101529.78
2022-10-18T00:23:38.932Z,101532.53
2022-10-18T00:26:12.373Z,101515.44
2022-10-18T00:28:41.164Z,101487.19
2022-10-18T00:31:13.463Z,101487.28
2022-10-18T00:33:42.330Z,101537.31
2022-10-18T00:36:10.535Z,101527.44
2022-10-18T00:38:38.438Z,101499.56
2022-10-18T00:41:09.795Z,101532.72
2022-10-18T00:43:57.592Z,101531.81
2022-10-18T00:46:27.620Z,101516.84
2022-10-18T00:48:57.617Z,101515.00
2022-10-18T00:51:30.451Z,101540.34
2022-10-18T00:53:58.214Z,101530.28
2022-10-18T00:56:26.462Z,101530.78
2022-10-18T00:58:54.641Z,101517.88
2022-10-18T01:01:25.809Z,101503.22
2022-10-18T01:03:57.536Z,101529.47
2022-10-18T01:06:28.384Z,101511.38
2022-10-18T01:09:15.423Z,101534.97
2022-10-18T01:12:05.857Z,101532.53
2022-10-18T01:15:05.719Z,101524.28
2022-10-18T01:17:54.895Z,101522.94
2022-10-18T01:20:44.340Z,101525.00
2022-10-18T01:24:02.859Z,101524.19
2022-10-18T01:26:48.384Z,101537.09
2022-10-18T01:29:54.261Z,101526.63
2022-10-18T01:32:47.698Z,101517.50
2022-10-18T01:35:21.302Z,101520.59
2022-10-18T01:37:51.992Z,101510.88
2022-10-18T01:40:22.525Z,101522.25
2022-10-18T01:42:51.259Z,101528.56
2022-10-18T01:45:21.746Z,101504.03
2022-10-18T01:47:51.039Z,101521.13
2022-10-18T01:50:32.728Z,101513.22
2022-10-18T01:53:01.863Z,101514.84
2022-10-18T01:55:49.075Z,101491.63
2022-10-18T01:58:22.369Z,101505.25
2022-10-18T02:01:05.526Z,101510.47
2022-10-18T02:03:37.276Z,101494.69
2022-10-18T02:06:25.242Z,101483.81
2022-10-18T02:09:16.609Z,101490.00
2022-10-18T02:11:46.890Z,101497.63
2022-10-18T02:14:16.648Z,101479.63
2022-10-18T02:16:57.234Z,101493.25
2022-10-18T02:19:39.033Z,101486.72
2022-10-18T02:22:08.878Z,101494.47
2022-10-18T02:24:40.108Z,101485.13
2022-10-18T02:27:08.661Z,101487.84
2022-10-18T02:29:37.169Z,101477.28
2022-10-18T02:32:16.085Z,101452.66
2022-10-18T02:34:49.455Z,101487.75
2022-10-18T02:37:18.738Z,101475.97
2022-10-18T02:39:49.391Z,101499.34
2022-10-18T02:42:17.374Z,101484.44
2022-10-18T02:44:45.064Z,101481.38
2022-10-18T02:47:13.254Z,101477.41
2022-10-18T02:49:41.000Z,101469.47
2022-10-18T02:52:08.671Z,101466.91
2022-10-18T02:54:36.425Z,101457.03
2022-10-18T02:57:04.050Z,101437.53
2022-10-18T02:59:31.854Z,101501.00
2022-10-18T03:01:59.693Z,101494.69
2022-10-18T03:06:55.949Z,101488.34
2022-10-18T03:09:23.563Z,101498.53
2022-10-18T03:11:51.448Z,101428.25
2022-10-18T03:14:19.325Z,101422.47
2022-10-18T03:16:47.076Z,101442.50
2022-10-18T03:19:14.784Z,101480.84
2022-10-18T03:21:42.567Z,101465.72
2022-10-18T03:24:10.241Z,101481.47
2022-10-18T03:26:37.893Z,101491.72
2022-10-18T03:29:05.833Z,101462.22
2022-10-18T03:31:33.964Z,101482.09
2022-10-18T03:34:01.618Z,101478.31
2022-10-18T03:36:29.236Z,101486.78
2022-10-18T03:38:56.886Z,101459.91
2022-10-18T03:41:24.698Z,101469.88
2022-10-18T03:43:55.150Z,101477.78
2022-10-18T03:46:22.936Z,101495.69
2022-10-18T03:48:50.761Z,101493.28
2022-10-18T03:51:18.510Z,101462.66
2022-10-18T03:53:46.166Z,101485.97
2022-10-18T03:56:13.858Z,101432.03
2022-10-18T03:58:41.492Z,101473.50
2022-10-18T04:01:11.031Z,101470.59
2022-10-18T04:03:38.638Z,101490.44
2022-10-18T04:06:07.932Z,101447.31
2022-10-18T04:08:36.221Z,101497.56
2022-10-18T04:11:12.258Z,101502.31
2022-10-18T04:13:39.923Z,101472.00
2022-10-18T04:16:07.574Z,101454.41
2022-10-18T04:18:35.190Z,101510.56
2022-10-18T04:21:02.971Z,101507.81
2022-10-18T04:23:31.838Z,101429.38
2022-10-18T04:26:02.695Z,101481.75
2022-10-18T04:28:35.619Z,101448.13
2022-10-18T04:31:03.338Z,101416.59
2022-10-18T04:33:31.144Z,101469.97
2022-10-18T04:35:58.835Z,101485.75
2022-10-18T04:38:26.858Z,101448.41
2022-10-18T04:40:54.555Z,101477.47
2022-10-18T04:43:22.311Z,101509.75
2022-10-18T04:45:51.256Z,101498.88
2022-10-18T04:48:19.243Z,101468.53
2022-10-18T04:50:51.209Z,101533.16
2022-10-18T04:53:19.445Z,101485.63
2022-10-18T04:55:51.265Z,101513.72
2022-10-18T04:58:19.406Z,101510.97
2022-10-18T05:00:47.877Z,101510.56
2022-10-18T05:03:17.810Z,101456.75
2022-10-18T05:06:02.856Z,101505.06
2022-10-18T05:08:33.434Z,101480.44
2022-10-18T05:11:01.354Z,101495.41
2022-10-18T05:13:30.259Z,101476.06
2022-10-18T05:16:00.403Z,101489.91
2022-10-18T05:18:28.566Z,101501.81
2022-10-18T05:20:56.588Z,101507.94
2022-10-18T05:23:24.888Z,101463.88
2022-10-18T05:25:52.683Z,101436.31
2022-10-18T05:28:40.078Z,101449.31
2022-10-18T05:31:11.098Z,101512.72
2022-10-18T05:33:39.213Z,101504.88
2022-10-18T05:36:07.321Z,101520.16
2022-10-18T05:41:05.821Z,101477.69
2022-10-18T05:43:33.440Z,101520.34
2022-10-18T05:46:01.264Z,101518.41
2022-10-18T05:48:28.963Z,101513.31
2022-10-18T05:51:00.825Z,101502.22
2022-10-18T05:53:36.784Z,101410.38
2022-10-18T05:56:06.116Z,101476.28
2022-10-18T05:58:35.130Z,101486.56
2022-10-18T06:01:03.797Z,101475.88
2022-10-18T06:03:31.680Z,101514.03
2022-10-18T06:06:10.512Z,101507.72
2022-10-18T06:08:39.372Z,101511.28
2022-10-18T06:11:18.196Z,101507.72
2022-10-18T06:13:49.089Z,101493.38
2022-10-18T06:16:19.673Z,101517.91
2022-10-18T06:18:53.289Z,101475.16
2022-10-18T06:21:21.820Z,101530.28
2022-10-18T06:23:51.062Z,101542.09
2022-10-18T06:26:18.790Z,101531.41
2022-10-18T06:28:46.436Z,101527.22
2022-10-18T06:31:15.027Z,101526.16
2022-10-18T06:33:42.657Z,101523.69
2022-10-18T06:36:15.585Z,101541.91
2022-10-18T06:38:43.581Z,101478.00
2022-10-18T06:41:11.324Z,101552.09
2022-10-18T06:43:38.963Z,101518.50
2022-10-18T06:46:08.249Z,101553.69
2022-10-18T06:48:36.726Z,101565.50
2022-10-18T06:51:06.579Z,101568.75
2022-10-18T06:53:43.804Z,101584.97
2022-10-18T06:56:20.971Z,101536.19
2022-10-18T06:58:48.769Z,101576.72
2022-10-18T07:01:19.841Z,101575.16
2022-10-18T07:03:49.070Z,101586.59
2022-10-18T07:06:18.734Z,101583.13
2022-10-18T07:08:48.462Z,101513.38
2022-10-18T07:11:19.591Z,101586.66
2022-10-18T07:13:47.545Z,101583.81
2022-10-18T07:16:18.483Z,101578.22
2022-10-18T07:18:52.450Z,101599.44
2022-10-18T07:21:22.544Z,101592.53
2022-10-18T07:23:51.191Z,101607.69
2022-10-18T07:26:30.296Z,101600.06
2022-10-18T07:29:06.773Z,101603.00
2022-10-18T07:31:34.698Z,101600.50
2022-10-18T07:34:06.001Z,101590.72
2022-10-18T07:36:34.561Z,101590.50
2022-10-18T07:39:03.167Z,101630.75
2022-10-18T07:41:33.561Z,101603.31
2022-10-18T07:44:02.366Z,101634.50
2022-10-18T07:46:30.343Z,101628.41
2022-10-18T07:48:59.754Z,101623.72
2022-10-18T07:51:28.146Z,101611.09
2022-10-18T07:53:55.940Z,101633.63
2022-10-18T07:56:23.561Z,101594.50
2022-10-18T07:58:54.003Z,101562.22
2022-10-18T08:01:22.880Z,101577.06
2022-10-18T08:03:51.071Z,101623.91
2022-10-18T08:06:20.542Z,101632.38
2022-10-18T08:08:48.654Z,101635.84
2022-10-18T08:11:19.432Z,101636.63
2022-10-18T08:13:47.656Z,101629.44
2022-10-18T08:16:18.370Z,101646.13
2022-10-18T08:18:46.101Z,101634.63
2022-10-18T08:21:15.463Z,101612.94
2022-10-18T08:23:44.134Z,101636.75
2022-10-18T08:26:14.816Z,101636.75
2022-10-18T08:28:46.167Z,101646.94
2022-10-18T08:31:22.004Z,101640.75
2022-10-18T08:33:49.584Z,101630.88
2022-10-18T08:36:18.529Z,101643.91
2022-10-18T08:38:46.559Z,101577.06
2022-10-18T08:41:37.546Z,101640.63
2022-10-18T08:44:11.557Z,101652.34
2022-10-18T08:46:45.170Z,101647.97
2022-10-18T08:49:29.242Z,101651.72
2022-10-18T08:51:58.522Z,101654.47
2022-10-18T08:54:44.475Z,101580.22
2022-10-18T08:57:16.087Z,101593.38
2022-10-18T08:59:44.380Z,101603.56
2022-10-18T09:02:36.893Z,101646.22
2022-10-18T09:05:28.851Z,101656.13
2022-10-18T09:07:59.571Z,101646.22
2022-10-18T09:10:46.153Z,101651.44
2022-10-18T09:13:41.516Z,101642.66
2022-10-18T09:16:17.789Z,101606.84
2022-10-18T09:19:04.203Z,101646.22
2022-10-18T09:21:50.114Z,101645.13
2022-10-18T09:24:33.123Z,101649.50
2022-10-18T09:27:18.719Z,101596.22
2022-10-18T09:30:04.686Z,101653.88
2022-10-18T09:33:04.366Z,101647.56
2022-10-18T09:35:52.796Z,101609.97
2022-10-18T09:41:11.066Z,101636.75
2022-10-18T09:43:54.742Z,101639.81
2022-10-18T09:46:27.923Z,101615.81
2022-10-18T09:48:58.333Z,101630.44
2022-10-18T09:51:31.254Z,101625.34
2022-10-18T09:54:20.466Z,101629.84
2022-10-18T09:59:37.149Z,101628.75
2022-10-18T10:02:05.689Z,101602.97
2022-10-18T10:04:33.842Z,101632.88
2022-10-18T10:07:02.330Z,101610.00
2022-10-18T10:09:56.245Z,101635.53
2022-10-18T10:12:30.496Z,101641.13
2022-10-18T10:15:22.779Z,101637.38
2022-10-18T10:18:06.154Z,101628.03
2022-10-18T10:20:44.242Z,101613.34
2022-10-18T10:23:39.312Z,101642.25
2022-10-18T10:26:20.665Z,101639.44
2022-10-18T10:28:49.374Z,101637.19
2022-10-18T10:31:34.318Z,101630.66
2022-10-18T10:34:18.123Z,101601.75
2022-10-18T10:36:53.388Z,101633.19
2022-10-18T10:39:23.816Z,101635.94
2022-10-18T10:42:00.630Z,101633.78
2022-10-18T10:44:33.927Z,101636.53
2022-10-18T10:47:01.996Z,101610.19
2022-10-18T10:49:40.616Z,101634.69
2022-10-18T10:52:33.960Z,101634.41
2022-10-18T10:55:23.636Z,101623.69
2022-10-18T10:57:52.830Z,101623.19
2022-10-18T11:00:39.704Z,101619.13
2022-10-18T11:03:29.110Z,101615.56
2022-10-18T11:06:01.212Z,101555.66
2022-10-18T11:08:38.478Z,101581.38
2022-10-18T11:11:22.909Z,101616.38
2022-10-18T11:14:13.556Z,101611.69
2022-10-18T11:17:25.313Z,101611.38
2022-10-18T11:20:02.695Z,101587.38
2022-10-18T11:22:36.515Z,101604.44
2022-10-18T11:25:06.447Z,101562.53
2022-10-18T11:27:43.545Z,101589.81
2022-10-18T11:30:36.947Z,101590.00
2022-10-18T11:33:50.009Z,101583.38
2022-10-18T11:36:25.118Z,101586.66
2022-10-18T11:38:57.079Z,101581.63
2022-10-18T11:42:03.282Z,101568.69
2022-10-18T11:44:42.457Z,101562.88
2022-10-18T11:47:17.083Z,101558.19
2022-10-18T11:50:07.559Z,101553.81
2022-10-18T11:52:47.218Z,101553.00
2022-10-18T11:55:30.364Z,101545.88
2022-10-18T11:58:12.419Z,101538.75
2022-10-18T12:00:49.767Z,101541.81
2022-10-18T12:03:31.011Z,101507.00
2022-10-18T12:06:04.604Z,101521.94
2022-10-18T12:08:41.416Z,101531.63
2022-10-18T12:11:18.097Z,101500.69
2022-10-18T12:13:50.226Z,101495.00
2022-10-18T12:16:38.970Z,101456.81
2022-10-18T12:19:25.167Z,101504.88
2022-10-18T12:21:58.177Z,101514.50
2022-10-18T12:24:30.483Z,101506.06
2022-10-18T12:27:02.547Z,101488.06
2022-10-18T12:29:40.273Z,101504.94
2022-10-18T12:32:18.564Z,101481.81
2022-10-18T12:34:57.202Z,101477.63
2022-10-18T12:37:37.698Z,101477.63
2022-10-18T12:40:15.797Z,101455.06
2022-10-18T12:42:48.984Z,101469.84
2022-10-18T12:45:35.707Z,101461.25
2022-10-18T12:48:07.718Z,101480.38
2022-10-18T12:50:38.738Z,101483.44
2022-10-18T12:53:12.597Z,101475.19
2022-10-18T12:58:14.490Z,101481.00
2022-10-18T13:00:42.193Z,101473.56
2022-10-18T13:03:12.697Z,101472.13
2022-10-18T13:05:53.876Z,101477.63
2022-10-18T13:08:28.033Z,101471.63
2022-10-18T13:11:01.728Z,101471.94
2022-10-18T13:13:40.155Z,101437.44
2022-10-18T13:16:27.745Z,101409.72
2022-10-18T13:19:29.575Z,101460.63
2022-10-18T13:22:09.583Z,101450.44
2022-10-18T13:24:44.186Z,101441.38
2022-10-18T13:27:35.809Z,101441.19
2022-10-18T13:30:13.078Z,101438.28
2022-10-18T13:32:59.327Z,101441.84
2022-10-18T13:35:45.528Z,101435.38
2022-10-18T13:38:31.308Z,101439.25
2022-10-18T13:44:00.064Z,101431.00
2022-10-18T13:46:33.770Z,101430.38
2022-10-18T13:49:36.443Z,101413.31
2022-10-18T13:52:25.452Z,101431.34
2022-10-18T13:55:14.737Z,101422.81
2022-10-18T13:57:45.504Z,101425.84
2022-10-18T14:00:22.282Z,101422.28
2022-10-18T14:03:02.592Z,101420.97
2022-10-18T14:05:47.424Z,101426.47
2022-10-18T14:08:24.754Z,101374.16
2022-10-18T14:11:03.069Z,101420.59
2022-10-18T14:13:54.858Z,101383.72
2022-10-18T14:16:42.348Z,101388.09
2022-10-18T14:19:30.450Z,101432.63
2022-10-18T14:22:28.664Z,101428.25
2022-10-18T14:24:59.064Z,101437.09
2022-10-18T14:27:32.739Z,101435.47
2022-10-18T14:30:23.089Z,101418.84
2022-10-18T14:32:54.585Z,101424.06
2022-10-18T14:35:33.625Z,101437.75
2022-10-18T14:38:02.781Z,101442.13
2022-10-18T14:40:39.687Z,101422.28
2022-10-18T14:43:16.886Z,101436.63
2022-10-18T14:45:45.144Z,101361.34
2022-10-18T14:48:18.880Z,101440.19
2022-10-18T14:50:49.489Z,101414.91
2022-10-18T14:53:22.070Z,101418.84
2022-10-18T14:55:56.525Z,101431.75
2022-10-18T14:58:24.401Z,101403.09
2022-10-18T15:00:52.498Z,101347.97
2022-10-18T15:03:20.981Z,101432.28
2022-10-18T15:06:05.971Z,101433.88
2022-10-18T15:08:41.251Z,101412.97
2022-10-18T15:11:14.095Z,101368.09
2022-10-18T15:13:56.544Z,101372.66
2022-10-18T15:16:28.665Z,101390.19
2022-10-18T15:19:16.105Z,101409.88
2022-10-18T15:22:31.601Z,101419.34
2022-10-18T15:25:27.983Z,101414.97
2022-10-18T15:28:00.305Z,101363.28
2022-10-18T15:30:43.254Z,101411.09
2022-10-18T15:33:23.565Z,101400.84
2022-10-18T15:35:52.450Z,101384.47
2022-10-18T15:38:36.847Z,101403.78
2022-10-18T15:41:56.563Z,101393.72
2022-10-18T15:44:31.695Z,101401.53
2022-10-18T15:47:12.284Z,101404.06
2022-10-18T15:49:46.312Z,101393.41
2022-10-18T15:52:38.273Z,101311.56
2022-10-18T15:55:45.406Z,101382.22
2022-10-18T15:58:18.007Z,101383.84
2022-10-18T16:00:47.729Z,101377.34
2022-10-18T16:03:17.701Z,101382.72
2022-10-18T16:05:45.836Z,101377.53
2022-10-18T16:08:30.562Z,101335.19
2022-10-18T16:10:59.547Z,101350.09
2022-10-18T16:13:27.483Z,101318.00
2022-10-18T16:15:56.172Z,101362.66
2022-10-18T16:18:25.069Z,101346.75
2022-10-18T16:20:53.283Z,101373.34
2022-10-18T16:23:24.301Z,101325.50
2022-10-18T16:25:52.801Z,101347.63
2022-10-18T16:28:23.459Z,101349.41
2022-10-18T16:31:04.238Z,101301.59
2022-10-18T16:33:31.888Z,101285.22
2022-10-18T16:35:59.835Z,101348.66
2022-10-18T16:38:36.285Z,101334.72
2022-10-18T16:41:07.266Z,101287.00
2022-10-18T16:43:35.587Z,101355.84
2022-10-18T16:46:04.777Z,101326.44
2022-10-18T16:48:33.741Z,101340.03
2022-10-18T16:51:02.040Z,101342.34
2022-10-18T16:53:29.848Z,101323.38
2022-10-18T16:56:00.007Z,101357.69
2022-10-18T16:58:29.310Z,101285.72
2022-10-18T17:00:58.649Z,101362.53
2022-10-18T17:03:26.831Z,101364.19
2022-10-18T17:05:54.644Z,101362.72
2022-10-18T17:08:29.328Z,101319.22
2022-10-18T17:10:59.676Z,101350.56
2022-10-18T17:13:27.317Z,101306.88
2022-10-18T17:15:55.061Z,101363.53
2022-10-18T17:18:30.700Z,101351.38
2022-10-18T17:21:00.951Z,101334.09
2022-10-18T17:23:29.281Z,101356.75
2022-10-18T17:26:08.532Z,101359.66
2022-10-18T17:28:45.003Z,101329.16
2022-10-18T17:31:16.034Z,101361.00
2022-10-18T17:33:44.754Z,101360.66
2022-10-18T17:36:13.245Z,101314.47
2022-10-18T17:38:41.501Z,101381.06
2022-10-18T17:41:11.758Z,101360.75
2022-10-18T17:46:08.443Z,101386.84
2022-10-18T17:48:37.947Z,101387.53
2022-10-18T17:51:10.506Z,101300.63
2022-10-18T17:53:38.634Z,101386.72
2022-10-18T17:56:07.968Z,101394.97
2022-10-18T17:58:35.949Z,101370.28
2022-10-18T18:01:18.318Z,101336.47
2022-10-18T18:03:47.887Z,101393.69
2022-10-18T18:06:31.055Z,101369.00
2022-10-18T18:09:01.086Z,101382.66
2022-10-18T18:11:29.112Z,101356.47
2022-10-18T18:13:57.575Z,101372.59
2022-10-18T18:16:28.291Z,101364.47
2022-10-18T18:18:58.715Z,101385.72
2022-10-18T18:21:27.133Z,101408.09
2022-10-18T18:23:55.396Z,101390.72
2022-10-18T18:26:23.887Z,101406.16
2022-10-18T18:28:52.022Z,101368.50
2022-10-18T18:31:24.134Z,101329.34
2022-10-18T18:33:54.366Z,101385.22
2022-10-18T18:36:23.514Z,101396.59
2022-10-18T18:38:57.019Z,101368.50
2022-10-18T18:41:26.600Z,101392.50
2022-10-18T18:44:00.725Z,101401.94
2022-10-18T18:46:30.366Z,101392.03
2022-10-18T18:48:58.735Z,101312.94
2022-10-18T18:51:27.257Z,101330.47
2022-10-18T18:53:55.338Z,101378.38
2022-10-18T18:56:25.126Z,101395.59
2022-10-18T18:58:54.074Z,101360.13
2022-10-18T19:01:24.205Z,101388.09
2022-10-18T19:03:54.913Z,101360.03
2022-10-18T19:06:26.883Z,101366.97
2022-10-18T19:09:01.253Z,101387.34
2022-10-18T19:11:32.856Z,101373.09
2022-10-18T19:14:03.005Z,101374.88
2022-10-18T19:16:37.615Z,101385.72
2022-10-18T19:19:08.243Z,101377.78
2022-10-18T19:21:42.129Z,101385.06
2022-10-18T19:24:09.718Z,101364.63
2022-10-18T19:26:45.420Z,101387.34
2022-10-18T19:29:20.388Z,101380.69
2022-10-18T19:31:49.766Z,101353.84
2022-10-18T19:34:19.395Z,101389.78
2022-10-18T19:36:48.741Z,101367.88
2022-10-18T19:39:20.990Z,101382.97
2022-10-18T19:41:50.782Z,101389.28
2022-10-18T19:44:20.225Z,101395.59
2022-10-18T19:46:48.531Z,101394.47
2022-10-18T19:49:17.039Z,101395.59
2022-10-18T19:51:45.270Z,101388.97
2022-10-18T19:54:14.273Z,101364.63
2022-10-18T19:56:43.081Z,101392.84
2022-10-18T19:59:12.205Z,101377.09
2022-10-18T20:01:39.951Z,101384.59
2022-10-18T20:04:08.618Z,101322.34
2022-10-18T20:06:37.777Z,101402.22
2022-10-18T20:09:07.524Z,101399.78
2022-10-18T20:11:36.368Z,101362.22
2022-10-18T20:14:05.943Z,101404.00
2022-10-18T20:16:33.958Z,101358.34
2022-10-18T20:19:07.563Z,101394.94
2022-10-18T20:21:35.988Z,101404.00
2022-10-18T20:24:05.975Z,101390.25
2022-10-18T20:26:36.059Z,101410.63
2022-10-18T20:29:04.622Z,101395.16
2022-10-18T20:31:35.794Z,101403.78
2022-10-18T20:34:13.105Z,101410.41
2022-10-18T20:36:43.072Z,101360.22
2022-10-18T20:39:10.630Z,101363.47
2022-10-18T20:41:41.270Z,101370.41
2022-10-18T20:44:13.955Z,101408.78
2022-10-18T20:46:42.043Z,101355.66
2022-10-18T20:49:13.876Z,101416.72
2022-10-18T20:51:42.168Z,101359.44
2022-10-18T20:54:11.151Z,101405.72
2022-10-18T20:56:39.487Z,101318.63
2022-10-18T20:59:10.115Z,101405.72
2022-10-18T21:01:39.264Z,101385.41
2022-10-18T21:04:09.603Z,101342.88
2022-10-18T21:06:41.235Z,101403.13
2022-10-18T21:09:16.269Z,101319.13
2022-10-18T21:11:46.532Z,101392.13
2022-10-18T21:14:18.825Z,101348.38
2022-10-18T21:16:47.703Z,101267.28
2022-10-18T21:19:18.863Z,101407.00
2022-10-18T21:21:52.380Z,101378.03
2022-10-18T21:24:26.082Z,101393.25
2022-10-18T21:26:55.591Z,101360.56
2022-10-18T21:29:25.176Z,101380.03
2022-10-18T21:31:55.802Z,101376.63
2022-10-18T21:34:23.546Z,101308.28
2022-10-18T21:36:51.162Z,101362.84
2022-10-18T21:39:21.919Z,101393.84
2022-10-18T21:41:51.323Z,101386.31
2022-10-18T21:44:19.071Z,101380.00
2022-10-18T21:46:47.034Z,101401.84
2022-10-18T21:49:16.203Z,101293.53
2022-10-18T21:51:44.982Z,101352.66
2022-10-18T21:54:15.694Z,101318.19
2022-10-18T21:56:44.053Z,101369.34
2022-10-18T21:59:15.008Z,101377.25
2022-10-18T22:01:44.965Z,101360.09
2022-10-18T22:04:22.721Z,101390.50
2022-10-18T22:06:51.955Z,101388.56
2022-10-18T22:09:21.481Z,101379.75
2022-10-18T22:11:52.631Z,101361.41
2022-10-18T22:14:20.922Z,101380.59
2022-10-18T22:16:48.866Z,101367.25
2022-10-18T22:19:17.030Z,101371.84
2022-10-18T22:21:45.028Z,101377.00
2022-10-18T22:24:12.692Z,101273.31
2022-10-18T22:26:42.984Z,101363.59
2022-10-18T22:29:16.170Z,101286.16
2022-10-18T22:31:47.873Z,101344.66
2022-10-18T22:34:18.570Z,101349.75
2022-10-18T22:36:46.446Z,101346.19
2022-10-18T22:39:15.416Z,101331.53
2022-10-18T22:41:44.591Z,101338.97
2022-10-18T22:44:13.699Z,101351.16
2022-10-18T22:46:42.452Z,101328.75
2022-10-18T22:49:11.302Z,101355.34
2022-10-18T22:51:39.367Z,101349.34
2022-10-18T22:54:08.002Z,101335.09
2022-10-18T22:56:35.632Z,101335.91
2022-10-18T22:59:03.368Z,101297.78
2022-10-18T23:01:30.983Z,101262.16
2022-10-18T23:04:00.353Z,101306.13
2022-10-18T23:06:36.201Z,101339.59
2022-10-18T23:09:09.236Z,101343.16
2022-10-18T23:11:38.799Z,101338.47
2022-10-18T23:14:07.081Z,101267.56
2022-10-18T23:16:35.164Z,101251.69
2022-10-18T23:19:03.735Z,101313.00
2022-10-18T23:21:31.582Z,101298.38
2022-10-18T23:23:59.378Z,101338.47
2022-10-18T23:26:28.182Z,101318.34
2022-10-18T23:28:56.434Z,101278.47
2022-10-18T23:31:29.917Z,101313.19
2022-10-18T23:34:01.545Z,101321.31
2022-10-18T23:36:30.585Z,101314.47
2022-10-18T23:38:58.820Z,101317.88
2022-10-18T23:41:27.007Z,101254.56
2022-10-18T23:43:55.350Z,101308.00
2022-10-18T23:46:23.101Z,101304.44
2022-10-18T23:48:51.186Z,101296.97
2022-10-18T23:51:18.743Z,101238.56
2022-10-18T23:53:46.750Z,101285.31
2022-10-18T23:56:16.254Z,101254.03
2022-10-18T23:58:45.393Z,101288.94
